Time;durP1;ratioP1;P1;durP2;ratioP2;P2;SDS_P1;SDS_P2;PMS_P1;PMS_P2;Temp;Humidity;BMP_temperature;BMP_pressure;BME280_temperature;BME280_humidity;BME280_pressure;Samples;Min_cycle;Max_cycle;Signal;HPM_P1;HPM_P2
2021/12/09 00:01:01;;;;;;;21.02;9.00;;;;;;;;;;5085381;28;21497;-54
2021/12/09 00:03:29;;;;;;;20.00;9.82;;;;;;;;;;5084732;28;20089;-50
2021/12/09 00:05:56;;;;;;;17.25;9.68;;;1.20;99.90;;;;;;5085756;28;20078;-51
2021/12/09 00:08:25;;;;;;;18.27;8.88;;;;;;;;;;5085858;28;20066;-52
2021/12/09 00:10:52;;;;;;;15.65;8.65;;;;;;;;;;5085609;28;20123;-53
2021/12/09 00:13:18;;;;;;;14.73;8.15;;;;;;;;;;5085887;28;20051;-53
2021/12/09 00:15:44;;;;;;;13.85;8.93;;;;;;;;;;5085306;28;20043;-52
2021/12/09 00:18:10;;;;;;;13.55;8.80;;;;;;;;;;5085387;28;20044;-55
2021/12/09 00:20:37;;;;;;;15.60;8.70;;;;;;;;;;5084162;28;20454;-54
2021/12/09 00:23:03;;;;;;;16.88;8.80;;;;;;;;;;5085941;28;20047;-55
2021/12/09 00:25:29;;;;;;;16.83;9.00;;;;;;;;;;5085146;28;20483;-55
2021/12/09 00:27:55;;;;;;;13.93;8.55;;;;;;;;;;5086321;28;20047;-55
2021/12/09 00:30:21;;;;;;;17.38;9.10;;;;;;;;;;5085037;28;20076;-56
2021/12/09 00:32:48;;;;;;;15.38;9.18;;;;;;;;;;5087022;28;20295;-54
2021/12/09 00:35:16;;;;;;;22.80;10.15;;;;;;;;;;5086320;28;20040;-56
2021/12/09 00:40:39;;;;;;;17.55;9.35;;;;;;;;;;5023368;28;20053;-55
2021/12/09 00:43:05;;;;;;;18.83;9.15;;;;;;;;;;5021743;28;20699;-55
2021/12/09 00:45:31;;;;;;;25.38;10.50;;;;;;;;;;5022307;28;20128;-54
2021/12/09 00:47:57;;;;;;;17.13;9.32;;;;;;;;;;5023075;28;20038;-54
2021/12/09 00:50:24;;;;;;;18.23;9.30;;;;;;;;;;5022117;28;20517;-55
2021/12/09 00:52:50;;;;;;;21.52;10.35;;;;;;;;;;5022552;28;20041;-53
2021/12/09 00:55:16;;;;;;;17.73;10.52;;;;;;;;;;5023018;28;20061;-55
2021/12/09 00:57:43;;;;;;;19.60;10.07;;;;;;;;;;5021315;28;20042;-53
2021/12/09 01:00:11;;;;;;;19.88;10.20;;;;;;;;;;5021215;28;20045;-54
2021/12/09 01:02:38;;;;;;;23.00;11.45;;;;;;;;;;5022330;28;20045;-55
2021/12/09 01:05:06;;;;;;;21.70;10.55;;;;;;;;;;5021941;28;20061;-51
2021/12/09 01:07:33;;;;;;;17.85;11.27;;;;;;;;;;5022069;28;20200;-54
2021/12/09 01:09:59;;;;;;;23.40;11.40;;;;;;;;;;5022692;28;20103;-53
2021/12/09 01:12:25;;;;;;;17.98;11.57;;;;;;;;;;5021056;28;20131;-52
2021/12/09 01:14:51;;;;;;;18.00;11.45;;;;;;;;;;5020909;28;20624;-55
2021/12/09 01:17:17;;;;;;;22.42;11.65;;;;;;;;;;5058072;28;20044;-52
2021/12/09 01:19:43;;;;;;;22.60;11.95;;;;;;;;;;5083922;28;20039;-52
2021/12/09 01:22:11;;;;;;;24.65;10.95;;;0.70;99.90;;;;;;5083691;28;20042;-54
2021/12/09 01:24:37;;;;;;;22.35;11.60;;;;;;;;;;5084289;28;20130;-55
2021/12/09 01:27:04;;;;;;;24.60;12.02;;;;;;;;;;5083907;28;20036;-55
2021/12/09 01:29:37;;;;;;;25.58;12.75;;;;;;;;;;5083636;28;20044;-54
2021/12/09 01:32:06;;;;;;;19.05;11.40;;;0.50;99.90;;;;;;5085005;28;20079;-51
2021/12/09 01:34:33;;;;;;;22.20;11.25;;;;;;;;;;5084149;28;20408;-52
2021/12/09 01:37:00;;;;;;;19.50;11.68;;;;;;;;;;5083869;28;20032;-51
2021/12/09 01:39:31;;;;;;;29.63;13.35;;;;;;;;;;5083795;28;20032;-55
2021/12/09 01:41:59;;;;;;;23.52;12.80;;;0.40;99.90;;;;;;5084513;28;20069;-54
2021/12/09 01:44:25;;;;;;;30.52;13.90;;;;;;;;;;5083936;28;20584;-55
2021/12/09 01:46:52;;;;;;;28.60;13.73;;;;;;;;;;5083539;28;20032;-55
2021/12/09 01:49:18;;;;;;;24.83;12.57;;;;;;;;;;5082670;28;20075;-53
2021/12/09 01:51:45;;;;;;;26.52;14.07;;;;;;;;;;5084400;28;20028;-53
2021/12/09 01:54:11;;;;;;;22.98;13.35;;;;;;;;;;5081639;28;20040;-54
2021/12/09 01:56:39;;;;;;;30.15;12.95;;;0.60;99.90;;;;;;5084195;28;20063;-55
2021/12/09 01:59:06;;;;;;;25.77;13.82;;;;;;;;;;5083895;28;20028;-52
2021/12/09 02:01:33;;;;;;;24.75;13.55;;;;;;;;;;5083703;28;20040;-54
2021/12/09 02:03:59;;;;;;;31.90;14.35;;;;;;;;;;5083073;28;20388;-54
2021/12/09 02:06:26;;;;;;;26.70;14.75;;;;;;;;;;5082444;28;20752;-53
2021/12/09 02:08:52;;;;;;;23.08;13.52;;;;;;;;;;5083020;28;20036;-53
2021/12/09 02:11:18;;;;;;;27.30;14.75;;;;;;;;;;5082524;28;20043;-53
2021/12/09 02:13:50;;;;;;;23.90;14.00;;;;;;;;;;5081644;28;20047;-52
2021/12/09 02:16:16;;;;;;;24.02;13.60;;;;;;;;;;5081836;28;20042;-54
2021/12/09 02:18:42;;;;;;;25.88;13.98;;;;;;;;;;5082116;28;20143;-52
2021/12/09 02:21:17;;;;;;;30.23;14.45;;;;;;;;;;5082376;28;20338;-54
2021/12/09 02:23:47;;;;;;;30.90;14.38;;;0.70;99.90;;;;;;5083215;28;20773;-55
2021/12/09 02:26:13;;;;;;;31.35;15.40;;;;;;;;;;5081538;28;20496;-54
2021/12/09 02:28:40;;;;;;;28.98;15.40;;;;;;;;;;5083088;28;20039;-54
2021/12/09 02:31:06;;;;;;;29.15;14.85;;;;;;;;;;5082678;28;20070;-54
2021/12/09 02:33:33;;;;;;;34.65;16.38;;;;;;;;;;5083503;28;20696;-54
2021/12/09 02:36:01;;;;;;;23.35;14.23;;;;;;;;;;5082153;28;20046;-53
2021/12/09 02:38:27;;;;;;;26.48;15.25;;;;;;;;;;5082281;28;20109;-49
2021/12/09 02:40:55;;;;;;;25.25;15.25;;;;;;;;;;5082677;28;20488;-50
2021/12/09 02:43:27;;;;;;;29.67;14.38;;;0.50;99.90;;;;;;5081931;28;20089;-49
2021/12/09 02:45:54;;;;;;;29.75;15.88;;;;;;;;;;5081816;28;20036;-50
2021/12/09 02:48:20;;;;;;;24.65;15.23;;;;;;;;;;5082087;28;20121;-52
2021/12/09 02:50:47;;;;;;;26.45;14.85;;;0.60;99.90;;;;;;5082559;28;20701;-50
2021/12/09 02:53:16;;;;;;;30.95;14.93;;;0.40;99.90;;;;;;5081138;28;20040;-48
2021/12/09 02:55:42;;;;;;;35.30;15.98;;;;;;;;;;5081463;28;20109;-51
2021/12/09 02:58:08;;;;;;;24.95;14.55;;;;;;;;;;5082208;28;20036;-53
2021/12/09 03:00:49;;;;;;;28.08;15.48;;;;;;;;;;5082054;28;20048;-51
2021/12/09 03:03:15;;;;;;;27.58;15.48;;;;;;;;;;5083535;28;20055;-53
2021/12/09 03:05:42;;;;;;;28.23;15.27;;;;;;;;;;5082980;28;20089;-50
2021/12/09 03:08:08;;;;;;;24.25;15.50;;;;;;;;;;5081457;28;20036;-51
2021/12/09 03:10:37;;;;;;;25.90;16.63;;;;;;;;;;5082072;28;20516;-51
2021/12/09 03:13:05;;;;;;;26.58;15.82;;;;;;;;;;5083362;28;20504;-51
2021/12/09 03:15:33;;;;;;;23.60;15.27;;;;;;;;;;5081883;28;20072;-51
2021/12/09 03:17:59;;;;;;;30.73;15.68;;;;;;;;;;5081405;28;20061;-49
2021/12/09 03:20:27;;;;;;;33.97;17.48;;;;;;;;;;5082766;28;20047;-50
2021/12/09 03:22:53;;;;;;;36.20;16.55;;;;;;;;;;5082419;28;20437;-52
2021/12/09 03:25:20;;;;;;;32.92;16.85;;;0.40;99.90;;;;;;5083653;28;20484;-51
2021/12/09 03:27:46;;;;;;;28.48;16.52;;;;;;;;;;5081320;28;20032;-49
2021/12/09 03:30:14;;;;;;;29.95;16.15;;;;;;;;;;5081875;28;20040;-53
2021/12/09 03:32:42;;;;;;;29.75;17.17;;;;;;;;;;5081338;28;20063;-54
2021/12/09 03:35:10;;;;;;;28.33;15.55;;;;;;;;;;5081369;28;20040;-51
2021/12/09 03:37:36;;;;;;;31.73;16.48;;;;;;;;;;5080651;28;21454;-49
2021/12/09 03:40:04;;;;;;;29.17;16.90;;;;;;;;;;5081795;28;20035;-54
2021/12/09 03:42:30;;;;;;;30.23;16.77;;;;;;;;;;5081646;28;20539;-50
2021/12/09 03:44:57;;;;;;;31.13;16.80;;;;;;;;;;5081540;28;20067;-50
2021/12/09 03:47:25;;;;;;;26.75;16.45;;;;;;;;;;5080551;28;20593;-50
2021/12/09 03:49:53;;;;;;;27.48;16.08;;;0.30;99.90;;;;;;5081187;28;20438;-50
2021/12/09 03:52:19;;;;;;;27.48;16.63;;;;;;;;;;5081283;28;20597;-49
2021/12/09 03:54:45;;;;;;;28.60;17.15;;;;;;;;;;5082079;28;20068;-48
2021/12/09 03:57:12;;;;;;;31.88;18.35;;;;;;;;;;5081234;28;20040;-51
2021/12/09 03:59:39;;;;;;;26.48;17.95;;;;;;;;;;5080310;28;20441;-53
2021/12/09 04:02:09;;;;;;;31.27;17.50;;;0.30;99.90;;;;;;5081524;28;20059;-50
2021/12/09 04:04:35;;;;;;;35.97;17.63;;;;;;;;;;5080264;28;20048;-54
2021/12/09 04:07:01;;;;;;;31.48;18.27;;;;;;;;;;5082834;28;20039;-49
2021/12/09 04:09:27;;;;;;;34.05;17.15;;;;;;;;;;5081018;28;20040;-49
2021/12/09 04:11:55;;;;;;;28.48;17.33;;;0.50;99.90;;;;;;5080835;28;20078;-51
2021/12/09 04:14:22;;;;;;;29.60;17.50;;;;;;;;;;5080463;28;20094;-50
2021/12/09 04:16:48;;;;;;;29.58;17.33;;;;;;;;;;5081213;28;20113;-54
2021/12/09 04:19:16;;;;;;;29.63;16.77;;;;;;;;;;5081548;28;20079;-50
2021/12/09 04:21:44;;;;;;;29.45;17.83;;;;;;;;;;5079920;28;20052;-54
2021/12/09 04:24:10;;;;;;;31.98;18.42;;;;;;;;;;5081920;28;20531;-50
2021/12/09 04:26:41;;;;;;;35.63;16.98;;;;;;;;;;5082262;28;20123;-54
2021/12/09 04:29:08;;;;;;;30.98;16.92;;;;;;;;;;5082387;28;20090;-51
2021/12/09 04:31:34;;;;;;;27.30;16.05;;;;;;;;;;5082036;28;20089;-53
2021/12/09 04:34:00;;;;;;;33.08;17.40;;;;;;;;;;5080456;28;20043;-53
2021/12/09 04:36:27;;;;;;;31.70;17.48;;;;;;;;;;5082223;28;20055;-54
2021/12/09 04:38:56;;;;;;;28.70;17.63;;;;;;;;;;5082073;28;20813;-52
2021/12/09 04:41:22;;;;;;;30.23;16.80;;;;;;;;;;5085069;28;20034;-48
2021/12/09 04:43:48;;;;;;;33.58;16.88;;;;;;;;;;5084564;28;20751;-51
2021/12/09 04:46:15;;;;;;;30.42;17.15;;;;;;;;;;5084035;28;20048;-49
2021/12/09 04:48:43;;;;;;;30.83;16.60;;;;;;;;;;5084070;28;20044;-50
2021/12/09 04:51:09;;;;;;;26.52;16.45;;;;;;;;;;5085279;28;20040;-48
2021/12/09 04:53:35;;;;;;;30.25;16.40;;;;;;;;;;5084421;28;20105;-49
2021/12/09 04:56:01;;;;;;;29.27;18.17;;;;;;;;;;5085448;28;20047;-49
2021/12/09 04:58:28;;;;;;;27.65;16.73;;;;;;;;;;5085628;28;20710;-49
2021/12/09 05:00:56;;;;;;;35.20;17.40;;;;;;;;;;5086070;28;20052;-49
2021/12/09 05:03:23;;;;;;;27.10;16.55;;;;;;;;;;5085849;28;20047;-51
2021/12/09 05:05:51;;;;;;;37.03;17.75;;;;;;;;;;5084645;28;20059;-50
2021/12/09 05:08:20;;;;;;;40.13;17.13;;;0.20;99.90;;;;;;5083180;28;20071;-49
2021/12/09 05:13:17;;;;;;;37.78;17.10;;;;;;;;;;5084964;28;20070;-50
2021/12/09 05:15:44;;;;;;;28.98;16.45;;;;;;;;;;5084308;28;20097;-54
2021/12/09 05:18:10;;;;;;;25.90;15.73;;;;;;;;;;5083102;28;20058;-53
2021/12/09 05:20:36;;;;;;;32.22;17.05;;;;;;;;;;5083448;28;20128;-49
2021/12/09 05:23:04;;;;;;;30.73;16.42;;;;;;;;;;5083962;28;20098;-52
2021/12/09 05:25:31;;;;;;;31.88;16.85;;;;;;;;;;5082544;28;20397;-48
2021/12/09 05:27:57;;;;;;;32.75;16.30;;;;;;;;;;5084983;28;20729;-49
2021/12/09 05:30:26;;;;;;;28.30;17.08;;;;;;;;;;5085632;28;20743;-49
2021/12/09 05:32:52;;;;;;;29.65;16.85;;;;;;;;;;5083088;28;20051;-49
2021/12/09 05:35:18;;;;;;;29.63;16.88;;;;;;;;;;5082744;28;20119;-49
2021/12/09 05:37:48;;;;;;;27.63;16.27;;;;;;;;;;5084132;28;20574;-50
2021/12/09 05:40:16;;;;;;;31.98;17.67;;;;;;;;;;5083740;28;20040;-50
2021/12/09 05:42:42;;;;;;;25.65;16.30;;;;;;;;;;5084563;28;20511;-50
2021/12/09 05:45:09;;;;;;;26.63;16.42;;;;;;;;;;5084026;28;20036;-48
2021/12/09 05:47:35;;;;;;;32.35;16.75;;;;;;;;;;5083618;28;20048;-52
2021/12/09 05:50:01;;;;;;;28.52;15.32;;;;;;;;;;5084825;28;20036;-48
2021/12/09 05:52:27;;;;;;;34.50;16.15;;;;;;;;;;5083259;28;20040;-50
2021/12/09 05:54:53;;;;;;;33.40;16.70;;;;;;;;;;5084110;28;20028;-49
2021/12/09 05:57:19;;;;;;;33.58;16.45;;;;;;;;;;5083509;28;20064;-53
2021/12/09 05:59:47;;;;;;;28.05;16.40;;;;;;;;;;5083790;28;20040;-49
2021/12/09 06:02:15;;;;;;;32.38;16.17;;;;;;;;;;5084816;28;20123;-52
2021/12/09 06:04:41;;;;;;;28.50;15.38;;;;;;;;;;5085084;28;20113;-52
2021/12/09 06:07:07;;;;;;;26.33;15.93;;;;;;;;;;5083307;28;20408;-49
2021/12/09 06:09:33;;;;;;;30.40;16.85;;;;;;;;;;5083622;28;20071;-51
2021/12/09 06:11:59;;;;;;;34.45;16.15;;;;;;;;;;5082385;28;20051;-53
2021/12/09 06:14:25;;;;;;;32.25;16.45;;;;;;;;;;5084015;28;20047;-54
2021/12/09 06:16:52;;;;;;;33.45;17.33;;;;;;;;;;5080367;28;20060;-51
2021/12/09 06:19:18;;;;;;;31.42;16.48;;;;;;;;;;5081464;28;20404;-51
2021/12/09 06:21:44;;;;;;;31.65;16.05;;;;;;;;;;5083024;28;20500;-53
2021/12/09 06:24:10;;;;;;;26.77;15.48;;;;;;;;;;5082614;28;20097;-52
2021/12/09 06:26:38;;;;;;;29.05;15.05;;;;;;;;;;5083038;28;21413;-52
2021/12/09 06:29:07;;;;;;;29.83;16.17;;;;;;;;;;5080323;28;20036;-51
2021/12/09 06:31:33;;;;;;;33.85;16.77;;;;;;;;;;5084204;28;20055;-54
2021/12/09 06:33:59;;;;;;;26.35;15.32;;;;;;;;;;5082644;28;20032;-54
2021/12/09 06:36:25;;;;;;;27.95;15.70;;;;;;;;;;5081106;28;20055;-54
2021/12/09 06:38:51;;;;;;;34.85;17.15;;;;;;;;;;5081441;28;20123;-53
2021/12/09 06:41:19;;;;;;;29.00;16.85;;;-0.40;99.90;;;;;;5082616;28;20036;-54
2021/12/09 06:43:45;;;;;;;34.45;16.55;;;;;;;;;;5080620;28;20035;-49
2021/12/09 06:46:12;;;;;;;38.50;17.20;;;;;;;;;;5083055;28;20040;-49
2021/12/09 06:48:38;;;;;;;35.08;17.50;;;;;;;;;;5083244;28;20040;-50
2021/12/09 06:51:05;;;;;;;32.60;15.68;;;;;;;;;;5082087;28;20046;-54
2021/12/09 06:53:32;;;;;;;32.33;17.20;;;;;;;;;;5082340;28;20040;-50
2021/12/09 06:56:01;;;;;;;28.65;15.57;;;;;;;;;;5082250;28;20106;-48
2021/12/09 06:58:27;;;;;;;34.63;19.23;;;;;;;;;;5083467;28;20032;-48
2021/12/09 07:00:54;;;;;;;35.60;15.82;;;;;;;;;;5084056;28;20063;-53
2021/12/09 07:03:22;;;;;;;26.80;16.13;;;-0.40;99.90;;;;;;5082850;28;20603;-53
2021/12/09 07:05:52;;;;;;;32.65;18.33;;;;;;;;;;5083388;28;20047;-55
2021/12/09 07:08:18;;;;;;;33.72;16.67;;;;;;;;;;5083979;28;20691;-49
2021/12/09 07:10:45;;;;;;;38.83;17.65;;;;;;;;;;5083083;28;20036;-53
2021/12/09 07:13:12;;;;;;;31.70;17.05;;;;;;;;;;5083126;28;20047;-55
2021/12/09 07:15:38;;;;;;;33.78;17.33;;;;;;;;;;5083365;28;20102;-55
2021/12/09 07:18:04;;;;;;;28.55;17.15;;;;;;;;;;5082876;28;20491;-54
2021/12/09 07:20:32;;;;;;;34.60;17.00;;;;;;;;;;5082747;28;20040;-54
2021/12/09 07:22:59;;;;;;;32.50;16.90;;;;;;;;;;5080798;28;20036;-51
2021/12/09 07:25:26;;;;;;;37.47;17.42;;;;;;;;;;5081589;28;20070;-53
2021/12/09 07:27:54;;;;;;;42.67;18.02;;;;;;;;;;5080216;28;20407;-52
2021/12/09 07:30:21;;;;;;;35.97;17.38;;;;;;;;;;5081886;28;20048;-49
2021/12/09 07:32:48;;;;;;;30.85;17.02;;;;;;;;;;5081906;28;20032;-52
2021/12/09 07:35:15;;;;;;;35.47;18.65;;;;;;;;;;5083857;28;20044;-54
2021/12/09 07:37:41;;;;;;;33.38;16.65;;;;;;;;;;5081451;28;20032;-55
2021/12/09 07:40:08;;;;;;;29.80;16.95;;;;;;;;;;5082619;28;20055;-51
2021/12/09 07:42:35;;;;;;;28.50;17.10;;;;;;;;;;5080707;28;20044;-50
2021/12/09 07:45:01;;;;;;;32.67;17.88;;;;;;;;;;5081836;28;20452;-51
2021/12/09 07:47:28;;;;;;;42.55;17.98;;;;;;;;;;5082690;28;20055;-50
2021/12/09 07:49:56;;;;;;;34.08;16.25;;;;;;;;;;5081284;28;20113;-50
2021/12/09 07:52:22;;;;;;;36.45;17.83;;;;;;;;;;5082367;28;20044;-54
2021/12/09 07:54:48;;;;;;;33.17;16.58;;;;;;;;;;5081369;28;21764;-51
2021/12/09 07:57:16;;;;;;;37.20;17.75;;;;;;;;;;5081917;28;20024;-51
2021/12/09 07:59:42;;;;;;;35.95;16.25;;;;;;;;;;5082283;28;20047;-53
2021/12/09 08:02:09;;;;;;;33.20;16.95;;;;;;;;;;5082029;28;20679;-54
2021/12/09 08:04:35;;;;;;;27.77;16.15;;;;;;;;;;5082912;28;20044;-54
2021/12/09 08:07:01;;;;;;;32.95;16.15;;;;;;;;;;5081488;28;21388;-50
2021/12/09 08:09:27;;;;;;;39.75;18.13;;;;;;;;;;5082960;28;20044;-53
2021/12/09 08:11:55;;;;;;;31.05;17.42;;;;;;;;;;5082661;28;20044;-52
2021/12/09 08:14:22;;;;;;;39.53;18.33;;;;;;;;;;5082530;28;20154;-53
2021/12/09 08:16:57;;;;;;;36.40;17.50;;;;;;;;;;5085111;28;20043;-55
2021/12/09 08:19:25;;;;;;;35.95;17.42;;;;;;;;;;5086174;28;20165;-51
2021/12/09 08:21:53;;;;;;;32.00;17.05;;;;;;;;;;5086259;28;20086;-54
2021/12/09 08:24:19;;;;;;;35.67;16.88;;;;;;;;;;5086177;28;20040;-54
2021/12/09 08:26:45;;;;;;;33.17;16.17;;;;;;;;;;5085368;28;20036;-55
2021/12/09 08:29:11;;;;;;;30.08;16.38;;;;;;;;;;5086871;28;20051;-55
2021/12/09 08:31:37;;;;;;;29.20;15.52;;;;;;;;;;5086663;28;20408;-54
2021/12/09 08:34:04;;;;;;;26.10;13.68;;;;;;;;;;5085133;28;20036;-55
2021/12/09 08:36:30;;;;;;;30.25;13.30;;;;;;;;;;5085416;28;20036;-55
2021/12/09 08:38:58;;;;;;;28.58;14.55;;;;;;;;;;5086860;28;20515;-54
2021/12/09 08:41:25;;;;;;;22.90;12.70;;;;;;;;;;5086037;28;20035;-54
2021/12/09 08:43:52;;;;;;;28.05;13.45;;;;;;;;;;5084937;28;20036;-54
2021/12/09 08:46:18;;;;;;;20.52;12.40;;;;;;;;;;5086448;28;20165;-53
2021/12/09 08:48:46;;;;;;;27.77;13.50;;;;;;;;;;5086060;28;20691;-50
2021/12/09 08:51:12;;;;;;;30.80;12.88;;;;;;;;;;5086488;28;20050;-53
2021/12/09 08:53:39;;;;;;;19.58;11.38;;;;;;;;;;5084598;28;20142;-51
2021/12/09 08:56:05;;;;;;;26.67;11.80;;;;;;;;;;5084956;28;20044;-52
2021/12/09 08:58:31;;;;;;;26.85;12.40;;;;;;;;;;5085031;28;21035;-53
2021/12/09 09:01:00;;;;;;;17.70;9.98;;;1.90;99.90;;;;;;5085771;28;20600;-49
2021/12/09 09:03:26;;;;;;;21.35;9.93;;;;;;;;;;5082870;28;20044;-50
2021/12/09 09:05:53;;;;;;;18.90;9.50;;;;;;;;;;5084323;28;20055;-53
2021/12/09 09:08:19;;;;;;;18.10;9.32;;;;;;;;;;5085123;28;20071;-48
2021/12/09 09:10:45;;;;;;;18.65;9.60;;;;;;;;;;5084171;28;20036;-53
2021/12/09 09:13:13;;;;;;;22.45;8.95;;;3.10;99.90;;;;;;5085165;28;20044;-48
2021/12/09 09:15:41;;;;;;;21.33;9.32;;;3.40;99.90;;;;;;5086239;28;20028;-47
2021/12/09 09:18:07;;;;;;;24.08;8.95;;;;;;;;;;5084248;28;20469;-49
2021/12/09 09:20:38;;;;;;;18.52;8.57;;;3.30;99.90;;;;;;5084472;28;20040;-48
2021/12/09 09:23:07;;;;;;;22.65;8.15;;;3.50;99.90;;;;;;5084959;28;20040;-52
2021/12/09 09:25:33;;;;;;;15.07;8.25;;;;;;;;;;5083124;28;20040;-47
2021/12/09 09:28:01;;;;;;;19.52;9.50;;;3.50;99.90;;;;;;5083397;28;20071;-49
2021/12/09 09:30:37;;;;;;;16.00;7.97;;;3.50;99.90;;;;;;5084022;28;21092;-48
2021/12/09 09:33:08;;;;;;;21.48;8.35;;;3.50;99.90;;;;;;5084164;28;20048;-49
2021/12/09 09:35:36;;;;;;;16.70;7.78;;;3.20;99.90;;;;;;5085019;28;20032;-52
2021/12/09 09:38:02;;;;;;;16.13;7.50;;;;;;;;;;5085090;28;20083;-49
2021/12/09 09:40:38;;;;;;;17.30;7.53;;;2.80;99.90;;;;;;5084997;28;20373;-48
2021/12/09 09:43:14;;;;;;;22.10;8.30;;;2.70;99.90;;;;;;5085341;28;20028;-48
2021/12/09 09:45:40;;;;;;;15.52;7.68;;;;;;;;;;5085244;28;20040;-50
2021/12/09 09:48:13;;;;;;;18.70;9.43;;;2.90;99.90;;;;;;5083552;28;20036;-47
2021/12/09 09:50:40;;;;;;;21.05;8.80;;;3.40;99.90;;;;;;5084668;28;20489;-51
2021/12/09 09:53:09;;;;;;;19.98;8.95;;;3.90;99.90;;;;;;5084865;28;20032;-52
2021/12/09 09:55:35;;;;;;;17.95;8.07;;;;;;;;;;5084152;28;20052;-50
2021/12/09 09:58:01;;;;;;;16.27;8.02;;;;;;;;;;5084501;28;20123;-52
2021/12/09 10:00:27;;;;;;;16.42;7.75;;;;;;;;;;5085571;28;20179;-49
2021/12/09 10:02:54;;;;;;;18.10;7.93;;;;;;;;;;5085334;28;20064;-52
2021/12/09 10:05:35;;;;;;;19.50;8.60;;;5.60;99.90;;;;;;5082818;28;20040;-47
2021/12/09 10:08:01;;;;;;;17.43;8.00;;;;;;;;;;5083996;28;20508;-47
2021/12/09 10:10:28;;;;;;;13.88;6.25;;;;;;;;;;5083574;28;20040;-51
2021/12/09 10:12:56;;;;;;;15.88;7.57;;;5.30;99.90;;;;;;5083945;28;20142;-51
2021/12/09 10:15:46;;;;;;;15.73;7.57;;;4.80;99.90;;;;;;5084280;28;20123;-48
2021/12/09 10:18:36;;;;;;;21.30;8.23;;;4.20;99.90;;;;;;5081690;28;20051;-47
2021/12/09 10:21:06;;;;;;;15.77;7.05;;;3.70;99.90;;;;;;5019940;28;20049;-50
2021/12/09 10:23:35;;;;;;;14.70;8.00;;;3.50;99.90;;;;;;5020820;28;20057;-48
2021/12/09 10:26:43;;;;;;;16.13;7.88;;;3.20;99.90;;;;;;5020279;28;20049;-49
2021/12/09 10:29:10;;;;;;;16.55;8.70;;;;;;;;;;4950533;28;20042;-47
2021/12/09 10:32:11;;;;;;;13.35;8.30;;;2.90;99.90;;;;;;4952210;28;20051;-50
2021/12/09 10:34:42;;;;;;;15.65;7.75;;;2.90;99.90;;;;;;4875538;29;20067;-49
2021/12/09 10:37:21;;;;;;;15.75;7.88;;;2.70;99.90;;;;;;4873689;29;20040;-48
2021/12/09 10:39:47;;;;;;;20.58;8.48;;;;;;;;;;4868164;29;20056;-51
2021/12/09 10:42:34;;;;;;;19.75;8.50;;;2.60;99.90;;;;;;4873717;29;20567;-49
2021/12/09 10:45:08;;;;;;;20.25;9.10;;;2.60;99.90;;;;;;4880583;29;20056;-50
2021/12/09 10:47:56;;;;;;;17.85;9.73;;;;;;;;;;4869183;29;20056;-48
2021/12/09 10:53:30;;;;;;;20.70;9.68;;;2.70;99.90;;;;;;4877625;29;20059;-46
2021/12/09 10:56:03;;;;;;;22.63;9.57;;;2.60;99.90;;;;;;4876372;29;20211;-48
2021/12/09 10:58:37;;;;;;;24.23;12.48;;;2.70;99.90;;;;;;4908902;29;20316;-50
2021/12/09 11:01:03;;;;;;;17.70;8.85;;;;;;;;;;4998984;28;20058;-47
2021/12/09 11:03:41;;;;;;;19.80;10.38;;;2.70;99.90;;;;;;4999202;28;21898;-46
2021/12/09 11:06:11;;;;;;;20.48;10.23;;;2.70;99.90;;;;;;5000630;28;20034;-48
2021/12/09 11:08:45;;;;;;;20.05;11.27;;;2.60;99.90;;;;;;5000332;28;20083;-47
2021/12/09 11:11:25;;;;;;;25.45;11.60;;;2.70;99.90;;;;;;5048688;28;20052;-47
2021/12/09 11:14:08;;;;;;;24.45;11.50;;;2.40;99.90;;;;;;5082445;28;20047;-48
2021/12/09 11:16:43;;;;;;;26.17;12.57;;;2.60;99.90;;;;;;5082967;28;20036;-46
2021/12/09 11:19:42;;;;;;;28.02;13.48;;;2.50;99.90;;;;;;5081117;28;20515;-47
2021/12/09 11:22:12;;;;;;;28.25;12.95;;;2.50;99.90;;;;;;5082816;28;20974;-49
2021/12/09 11:24:44;;;;;;;28.05;13.13;;;2.60;99.90;;;;;;5081480;28;20131;-51
2021/12/09 11:27:12;;;;;;;28.48;12.43;;;2.70;99.90;;;;;;5081562;28;20140;-46
2021/12/09 11:29:43;;;;;;;28.42;12.48;;;2.70;99.90;;;;;;5082623;28;20036;-48
2021/12/09 11:32:21;;;;;;;34.85;13.25;;;2.40;99.90;;;;;;5082116;28;20122;-47
2021/12/09 11:35:00;;;;;;;25.88;11.63;;;2.70;99.90;;;;;;5080977;28;20111;-50
2021/12/09 11:40:09;;;;;;;;;;;2.70;99.90;;;;;;5082010;28;20140;-48
2021/12/09 11:42:48;;;;;;;27.70;13.10;;;2.80;99.90;;;;;;5081389;28;19924;-52
2021/12/09 11:45:16;;;;;;;26.27;11.55;;;2.60;99.90;;;;;;5079201;28;20523;-47
2021/12/09 11:47:44;;;;;;;34.67;13.05;;;2.70;99.90;;;;;;5082315;28;20044;-50
2021/12/09 11:50:13;;;;;;;34.35;13.65;;;2.80;99.90;;;;;;5084033;28;20032;-46
2021/12/09 11:52:43;;;;;;;33.78;14.18;;;2.50;99.90;;;;;;5084534;28;20036;-47
2021/12/09 11:55:12;;;;;;;25.42;11.98;;;2.60;99.90;;;;;;5085320;28;20040;-47
2021/12/09 11:57:42;;;;;;;26.83;14.48;;;;;;;;;;5086308;28;20047;-52
2021/12/09 12:07:08;;;;;;;32.45;14.38;;;2.70;99.90;;;;;;5084761;28;20040;-46
2021/12/09 12:12:50;;;;;;;25.02;12.88;;;2.80;99.90;;;;;;5042631;28;20059;-46
2021/12/09 12:18:28;;;;;;;22.60;13.55;;;2.60;99.90;;;;;;5042225;28;20098;-48
2021/12/09 12:40:20;;;;;;;39.75;15.98;;;2.80;99.90;;;;;;4977560;28;20077;-49
2021/12/09 12:42:53;;;;;;;32.60;15.70;;;2.80;99.90;;;;;;4969913;28;20168;-48
2021/12/09 12:48:56;;;;;;;37.83;17.15;;;;;;;;;;4993767;28;20186;-47
2021/12/09 12:54:15;;;;;;;31.08;16.92;;;2.80;99.90;;;;;;5000633;28;20041;-47
2021/12/09 12:56:44;;;;;;;37.90;16.48;;;3.00;99.90;;;;;;4928098;29;20052;-46
2021/12/09 12:59:15;;;;;;;36.83;17.65;;;;;;;;;;4939296;29;20058;-48
2021/12/09 13:02:13;;;;;;;31.25;17.08;;;3.00;99.90;;;;;;4927614;28;20180;-48
2021/12/09 13:04:51;;;;;;;32.55;16.83;;;;;;;;;;4993523;28;20054;-52
2021/12/09 13:10:44;;;;;;;34.30;17.38;;;3.00;99.90;;;;;;5002117;28;20049;-46
2021/12/09 13:13:26;;;;;;;33.80;18.35;;;2.90;99.90;;;;;;5000315;28;20100;-49
2021/12/09 13:16:58;;;;;;;39.30;17.70;;;3.00;99.90;;;;;;5000254;28;20049;-47
2021/12/09 13:19:15;;;;;;;30.83;16.08;;;3.10;99.90;;;;;;4998641;28;20049;-48
2021/12/09 13:21:52;;;;;;;37.75;18.20;;;3.00;99.90;;;;;;4999894;28;20213;-48
2021/12/09 13:24:47;;;;;;;37.38;18.10;;;2.90;99.90;;;;;;5000203;28;20052;-48
2021/12/09 13:31:01;;;;;;;39.30;17.48;;;3.00;99.90;;;;;;4961340;28;20050;-47
2021/12/09 13:36:33;;;;;;;32.67;18.20;;;3.10;99.90;;;;;;4925253;29;20047;-48
2021/12/09 13:47:46;;;;;;;34.30;18.02;;;3.00;99.90;;;;;;4924039;29;20143;-49
2021/12/09 13:50:39;;;;;;;37.17;18.25;;;3.20;99.90;;;;;;4923973;29;20521;-47
2021/12/09 13:55:33;;;;;;;36.83;18.50;;;3.00;99.90;;;;;;4923948;29;20763;-48
2021/12/09 13:58:03;;;;;;;32.78;17.15;;;3.10;99.90;;;;;;4923739;29;20533;-49
2021/12/09 14:00:38;;;;;;;32.95;17.55;;;3.10;99.90;;;;;;4925663;29;20051;-47
2021/12/09 14:03:16;;;;;;;33.58;17.25;;;3.10;99.90;;;;;;4924580;28;20078;-50
2021/12/09 14:06:09;;;;;;;33.70;16.75;;;3.00;99.90;;;;;;4982570;28;20646;-47
2021/12/09 14:08:38;;;;;;;39.95;17.55;;;;;;;;;;4953256;28;20526;-47
2021/12/09 14:11:13;;;;;;;36.03;17.85;;;3.20;99.90;;;;;;5019754;28;20792;-48
2021/12/09 14:13:45;;;;;;;34.40;16.95;;;;;;;;;;5017890;28;20075;-50
2021/12/09 14:16:24;;;;;;;35.17;18.45;;;3.20;99.90;;;;;;5020658;28;20624;-47
2021/12/09 14:21:23;;;;;;;37.10;17.85;;;3.10;99.90;;;;;;5004186;28;20042;-48
2021/12/09 14:23:49;;;;;;;33.55;17.45;;;;;;;;;;5020789;28;20218;-51
2021/12/09 14:26:16;;;;;;;37.95;17.80;;;3.20;99.90;;;;;;5003186;28;20045;-47
2021/12/09 14:28:44;;;;;;;40.97;18.00;;;3.20;99.90;;;;;;5020581;28;20088;-47
2021/12/09 14:31:10;;;;;;;35.45;18.17;;;;;;;;;;5020575;28;20044;-48
2021/12/09 14:33:36;;;;;;;41.35;18.30;;;;;;;;;;5020532;28;20054;-48
2021/12/09 14:36:08;;;;;;;36.95;17.33;;;3.30;99.90;;;;;;5020547;28;20033;-50
2021/12/09 14:38:36;;;;;;;37.22;18.10;;;3.20;99.90;;;;;;5003059;28;20069;-48
2021/12/09 14:41:22;;;;;;;35.95;18.60;;;3.20;99.90;;;;;;5020175;28;20039;-48
2021/12/09 14:43:50;;;;;;;33.58;18.05;;;3.30;99.90;;;;;;5020081;28;20713;-52
2021/12/09 14:46:27;;;;;;;32.28;18.52;;;3.20;99.90;;;;;;5070073;28;20113;-52
2021/12/09 14:48:54;;;;;;;36.70;19.08;;;2.90;99.90;;;;;;5069823;28;20036;-49
2021/12/09 14:51:20;;;;;;;38.05;18.80;;;;;;;;;;5081892;28;20097;-49
2021/12/09 14:53:59;;;;;;;38.88;19.15;;;3.20;99.90;;;;;;5081830;28;20067;-51
2021/12/09 14:56:34;;;;;;;39.15;19.45;;;3.20;99.90;;;;;;5081218;28;20523;-52
2021/12/09 14:59:26;;;;;;;34.55;18.75;;;3.20;99.90;;;;;;5082756;28;20040;-47
2021/12/09 15:02:05;;;;;;;34.53;19.45;;;3.20;99.90;;;;;;5082304;28;20070;-48
2021/12/09 15:04:40;;;;;;;32.45;19.52;;;;;;;;;;5080595;28;20503;-47
2021/12/09 15:07:10;;;;;;;36.47;19.30;;;3.30;99.90;;;;;;5081801;28;20456;-49
2021/12/09 15:09:37;;;;;;;30.55;17.77;;;;;;;;;;5081717;28;20462;-50
2021/12/09 15:12:08;;;;;;;35.40;18.73;;;3.20;99.90;;;;;;5081385;28;20122;-49